createdAt,value
2022-10-16T00:01:23.274Z,0.40
2022-10-16T00:03:50.269Z,0.35
2022-10-16T00:06:18.958Z,0.73
2022-10-16T00:08:46.244Z,0.40
2022-10-16T00:11:26.486Z,0.40
2022-10-16T00:13:57.938Z,0.40
2022-10-16T00:16:26.601Z,0.30
2022-10-16T00:18:53.425Z,0.40
2022-10-16T00:21:24.741Z,0.40
2022-10-16T00:24:00.703Z,0.40
2022-10-16T00:26:28.841Z,0.32
2022-10-16T00:28:55.588Z,0.30
2022-10-16T00:31:24.132Z,0.40
2022-10-16T00:33:51.738Z,0.50
2022-10-16T00:36:21.039Z,0.30
2022-10-16T00:38:47.883Z,0.50
2022-10-16T00:41:16.683Z,0.50
2022-10-16T00:43:47.813Z,1.00
2022-10-16T00:46:22.327Z,0.63
2022-10-16T00:49:16.653Z,1.05
2022-10-16T00:51:47.392Z,0.60
2022-10-16T00:54:30.510Z,0.50
2022-10-16T00:57:00.838Z,1.27
2022-10-16T00:59:31.350Z,1.13
2022-10-16T01:01:59.408Z,0.60
2022-10-16T01:04:27.294Z,0.98
2022-10-16T01:07:04.702Z,0.90
2022-10-16T01:09:56.322Z,2.00
2022-10-16T01:12:38.821Z,1.92
2022-10-16T01:15:09.465Z,3.72
2022-10-16T01:17:43.630Z,3.15
2022-10-16T01:20:33.009Z,2.78
2022-10-16T01:23:37.778Z,2.50
2022-10-16T01:26:20.312Z,2.00
2022-10-16T01:28:52.740Z,1.60
2022-10-16T01:31:23.416Z,1.45
2022-10-16T01:34:17.497Z,1.48
2022-10-16T01:36:54.213Z,1.23
2022-10-16T01:39:25.998Z,1.50
2022-10-16T01:42:00.001Z,1.70
2022-10-16T01:44:32.729Z,1.27
2022-10-16T01:47:01.078Z,1.50
2022-10-16T01:49:33.507Z,1.77
2022-10-16T01:52:06.352Z,1.50
2022-10-16T01:54:35.915Z,1.33
2022-10-16T01:57:04.933Z,0.70
2022-10-16T01:59:35.715Z,0.40
2022-10-16T02:02:09.116Z,1.15
2022-10-16T02:04:44.916Z,0.80
2022-10-16T02:07:12.434Z,0.50
2022-10-16T02:09:39.844Z,0.80
2022-10-16T02:12:13.149Z,1.77
2022-10-16T02:14:40.654Z,3.42
2022-10-16T02:17:16.516Z,2.67
2022-10-16T02:19:44.642Z,1.98
2022-10-16T02:22:37.160Z,1.63
2022-10-16T02:25:09.364Z,1.02
2022-10-16T02:27:43.069Z,0.98
2022-10-16T02:30:20.387Z,1.40
2022-10-16T02:32:49.792Z,1.02
2022-10-16T02:35:19.198Z,0.90
2022-10-16T02:37:47.390Z,0.77
2022-10-16T02:40:18.302Z,0.90
2022-10-16T02:42:54.267Z,0.95
2022-10-16T02:45:22.033Z,0.70
2022-10-16T02:47:49.833Z,0.70
2022-10-16T02:50:17.919Z,0.70
2022-10-16T02:52:44.396Z,0.73
2022-10-16T02:55:11.950Z,1.38
2022-10-16T02:57:39.513Z,2.95
2022-10-16T03:00:10.735Z,4.28
2022-10-16T03:02:37.295Z,3.40
2022-10-16T03:05:04.425Z,2.25
2022-10-16T03:07:31.010Z,1.52
2022-10-16T03:09:57.806Z,1.50
2022-10-16T03:12:24.272Z,1.20
2022-10-16T03:14:50.767Z,1.00
2022-10-16T03:17:18.120Z,0.77
2022-10-16T03:19:45.132Z,0.60
2022-10-16T03:22:12.278Z,0.70
2022-10-16T03:24:39.101Z,0.70
2022-10-16T03:27:05.604Z,0.52
2022-10-16T03:29:33.389Z,0.50
2022-10-16T03:32:00.645Z,0.40
2022-10-16T03:34:27.687Z,0.30
2022-10-16T03:36:54.572Z,0.32
2022-10-16T03:39:21.066Z,0.25
2022-10-16T03:41:47.708Z,0.43
2022-10-16T03:44:14.462Z,0.20
2022-10-16T03:46:42.289Z,0.50
2022-10-16T03:49:09.947Z,0.25
2022-10-16T03:51:36.837Z,0.40
2022-10-16T03:54:03.621Z,2.10
2022-10-16T03:56:30.263Z,1.00
2022-10-16T03:58:56.723Z,0.80
2022-10-16T04:01:23.286Z,1.50
2022-10-16T04:03:50.089Z,3.80
2022-10-16T04:06:16.780Z,2.90
2022-10-16T04:08:44.671Z,1.50
2022-10-16T04:11:11.455Z,1.02
2022-10-16T04:13:38.324Z,1.83
2022-10-16T04:16:04.993Z,1.40
2022-10-16T04:18:33.130Z,1.67
2022-10-16T04:21:05.159Z,1.02
2022-10-16T04:23:31.948Z,1.33
2022-10-16T04:26:00.456Z,1.05
2022-10-16T04:28:27.850Z,1.35
2022-10-16T04:30:54.830Z,0.90
2022-10-16T04:33:21.365Z,1.00
2022-10-16T04:35:48.561Z,0.80
2022-10-16T04:38:16.106Z,1.13
2022-10-16T04:40:43.938Z,2.80
2022-10-16T04:43:10.671Z,1.65
2022-10-16T04:45:37.215Z,1.13
2022-10-16T04:48:04.261Z,2.30
2022-10-16T04:50:30.808Z,1.13
2022-10-16T04:53:08.046Z,1.52
2022-10-16T04:55:34.614Z,1.52
2022-10-16T04:58:01.237Z,1.75
2022-10-16T05:00:28.174Z,1.70
2022-10-16T05:02:55.827Z,1.10
2022-10-16T05:05:22.667Z,0.98
2022-10-16T05:07:50.582Z,0.98
2022-10-16T05:10:17.386Z,0.90
2022-10-16T05:12:43.909Z,15.75
2022-10-16T05:15:10.998Z,11.57
2022-10-16T05:17:42.422Z,7.18
2022-10-16T05:20:12.159Z,6.43
2022-10-16T05:22:39.522Z,5.22
2022-10-16T05:25:07.545Z,4.28
2022-10-16T05:27:34.241Z,5.25
2022-10-16T05:30:01.027Z,3.10
2022-10-16T05:32:29.369Z,4.45
2022-10-16T05:34:56.148Z,5.45
2022-10-16T05:37:22.819Z,6.70
2022-10-16T05:39:49.690Z,5.72
2022-10-16T05:42:16.227Z,3.95
2022-10-16T05:44:43.022Z,3.38
2022-10-16T05:47:11.899Z,2.80
2022-10-16T05:49:41.264Z,3.45
2022-10-16T05:52:11.031Z,3.33
2022-10-16T05:54:37.838Z,4.38
2022-10-16T05:57:06.639Z,4.57
2022-10-16T05:59:33.688Z,6.07
2022-10-16T06:02:01.438Z,5.75
2022-10-16T06:04:27.930Z,6.03
2022-10-16T06:07:01.493Z,6.40
2022-10-16T06:09:28.194Z,5.68
2022-10-16T06:11:54.694Z,4.95
2022-10-16T06:14:21.325Z,5.65
2022-10-16T06:16:48.084Z,5.72
2022-10-16T06:19:14.722Z,5.10
2022-10-16T06:21:41.580Z,5.25
2022-10-16T06:24:08.334Z,5.60
2022-10-16T06:26:35.042Z,5.07
2022-10-16T06:29:02.083Z,3.70
2022-10-16T06:31:32.007Z,3.72
2022-10-16T06:33:59.316Z,4.20
2022-10-16T06:36:27.222Z,3.90
2022-10-16T06:38:54.176Z,4.50
2022-10-16T06:41:22.978Z,4.90
2022-10-16T06:43:49.993Z,3.95
2022-10-16T06:46:20.073Z,3.95
2022-10-16T06:48:46.960Z,3.38
2022-10-16T06:51:16.600Z,2.90
2022-10-16T06:54:03.484Z,2.35
2022-10-16T06:56:32.272Z,2.90
2022-10-16T06:59:00.570Z,3.10
2022-10-16T07:01:27.564Z,3.38
2022-10-16T07:03:56.172Z,3.45
2022-10-16T07:06:24.938Z,2.90
2022-10-16T07:08:52.240Z,2.97
2022-10-16T07:11:23.362Z,2.60
2022-10-16T07:13:56.170Z,2.90
2022-10-16T07:16:26.005Z,2.05
2022-10-16T07:18:59.300Z,3.00
2022-10-16T07:21:28.289Z,3.13
2022-10-16T07:23:57.323Z,3.00
2022-10-16T07:26:25.379Z,2.13
2022-10-16T07:28:52.278Z,2.60
2022-10-16T07:31:21.223Z,2.78
2022-10-16T07:33:49.237Z,1.85
2022-10-16T07:36:16.934Z,2.15
2022-10-16T07:38:44.018Z,2.40
2022-10-16T07:41:16.280Z,2.78
2022-10-16T07:43:50.132Z,2.85
2022-10-16T07:46:19.048Z,2.25
2022-10-16T07:48:48.230Z,2.72
2022-10-16T07:51:17.160Z,2.67
2022-10-16T07:53:43.873Z,2.20
2022-10-16T07:56:10.950Z,2.22
2022-10-16T07:58:40.488Z,3.00
2022-10-16T08:01:09.964Z,2.20
2022-10-16T08:03:37.390Z,3.15
2022-10-16T08:06:05.458Z,3.65
2022-10-16T08:08:32.104Z,3.42
2022-10-16T08:10:58.681Z,2.50
2022-10-16T08:13:25.598Z,2.20
2022-10-16T08:15:52.201Z,2.03
2022-10-16T08:18:19.539Z,1.65
2022-10-16T08:20:46.182Z,1.50
2022-10-16T08:23:14.660Z,2.00
2022-10-16T08:25:42.297Z,1.98
2022-10-16T08:28:11.709Z,2.30
2022-10-16T08:30:38.557Z,2.45
2022-10-16T08:33:05.755Z,2.28
2022-10-16T08:35:32.265Z,2.47
2022-10-16T08:37:58.930Z,2.85
2022-10-16T08:40:33.392Z,2.47
2022-10-16T08:43:13.096Z,3.10
2022-10-16T08:46:03.202Z,2.80
2022-10-16T08:48:40.010Z,3.42
2022-10-16T08:51:09.044Z,2.67
2022-10-16T08:53:50.045Z,3.78
2022-10-16T08:56:19.542Z,7.97
2022-10-16T08:58:48.824Z,5.78
2022-10-16T09:01:20.314Z,4.20
2022-10-16T09:04:06.550Z,4.00
2022-10-16T09:07:11.527Z,12.43
2022-10-16T09:09:50.738Z,10.68
2022-10-16T09:12:25.528Z,4.53
2022-10-16T09:15:20.505Z,3.53
2022-10-16T09:18:21.933Z,3.17
2022-10-16T09:20:58.975Z,3.45
2022-10-16T09:23:31.190Z,3.28
2022-10-16T09:25:59.832Z,3.00
2022-10-16T09:28:27.393Z,3.20
2022-10-16T09:30:55.242Z,3.33
2022-10-16T09:33:27.153Z,2.80
2022-10-16T09:35:56.910Z,2.10
2022-10-16T09:38:30.865Z,2.03
2022-10-16T09:41:03.046Z,1.90
2022-10-16T09:43:43.209Z,2.00
2022-10-16T09:46:42.421Z,1.88
2022-10-16T09:49:27.989Z,2.03
2022-10-16T09:52:11.104Z,2.58
2022-10-16T09:54:38.578Z,2.33
2022-10-16T09:57:08.454Z,2.28
2022-10-16T09:59:35.035Z,2.25
2022-10-16T10:02:16.038Z,2.10
2022-10-16T10:04:49.126Z,2.10
2022-10-16T10:07:22.352Z,2.83
2022-10-16T10:09:49.329Z,2.25
2022-10-16T10:12:21.773Z,2.17
2022-10-16T10:14:56.567Z,2.85
2022-10-16T10:17:28.365Z,2.78
2022-10-16T10:19:57.865Z,2.20
2022-10-16T10:22:32.281Z,1.80
2022-10-16T10:25:25.425Z,1.80
2022-10-16T10:28:04.941Z,1.85
2022-10-16T10:30:34.818Z,1.60
2022-10-16T10:33:22.556Z,1.80
2022-10-16T10:36:08.149Z,1.85
2022-10-16T10:38:54.277Z,2.05
2022-10-16T10:41:31.724Z,2.00
2022-10-16T10:44:19.842Z,1.95
2022-10-16T10:46:52.658Z,1.80
2022-10-16T10:49:41.732Z,2.00
2022-10-16T10:52:36.628Z,1.75
2022-10-16T10:55:03.253Z,1.40
2022-10-16T11:00:18.386Z,1.80
2022-10-16T11:03:20.189Z,2.20
2022-10-16T11:06:09.512Z,1.95
2022-10-16T11:08:44.721Z,2.72
2022-10-16T11:11:27.228Z,2.42
2022-10-16T11:14:00.980Z,2.00
2022-10-16T11:16:36.105Z,2.67
2022-10-16T11:19:21.543Z,2.92
2022-10-16T11:22:02.789Z,2.83
2022-10-16T11:24:41.911Z,2.00
2022-10-16T11:27:14.678Z,2.30
2022-10-16T11:30:00.864Z,1.88
2022-10-16T11:32:46.335Z,2.05
2022-10-16T11:35:23.346Z,2.30
2022-10-16T11:37:51.921Z,2.45
2022-10-16T11:40:28.879Z,1.83
2022-10-16T11:43:03.187Z,1.90
2022-10-16T11:45:45.493Z,2.05
2022-10-16T11:48:27.294Z,2.28
2022-10-16T11:50:57.156Z,1.88
2022-10-16T11:53:29.776Z,2.08
2022-10-16T11:55:56.696Z,1.73
2022-10-16T11:58:40.245Z,2.17
2022-10-16T12:01:09.943Z,1.73
2022-10-16T12:03:43.461Z,1.92
2022-10-16T12:06:53.417Z,2.13
2022-10-16T12:09:30.521Z,2.10
2022-10-16T12:11:57.771Z,1.70
2022-10-16T12:14:36.939Z,1.88
2022-10-16T12:17:35.200Z,1.70
2022-10-16T12:20:12.957Z,1.70
2022-10-16T12:23:04.609Z,1.75
2022-10-16T12:25:49.350Z,1.80
2022-10-16T12:28:16.461Z,2.30
2022-10-16T12:30:53.291Z,2.17
2022-10-16T12:33:31.015Z,1.67
2022-10-16T12:36:00.772Z,1.90
2022-10-16T12:38:29.257Z,1.65
2022-10-16T12:41:02.981Z,1.80
2022-10-16T12:43:39.078Z,1.60
2022-10-16T12:46:11.797Z,1.77
2022-10-16T12:48:48.570Z,1.83
2022-10-16T12:51:26.885Z,1.80
2022-10-16T12:54:14.950Z,2.05
2022-10-16T12:57:04.295Z,2.03
2022-10-16T12:59:39.219Z,2.00
2022-10-16T13:02:22.419Z,1.77
2022-10-16T13:05:07.122Z,1.98
2022-10-16T13:07:51.156Z,2.00
2022-10-16T13:10:36.605Z,1.90
2022-10-16T13:13:24.973Z,1.77
2022-10-16T13:16:04.182Z,1.77
2022-10-16T13:18:44.736Z,1.85
2022-10-16T13:21:36.222Z,1.73
2022-10-16T13:24:28.578Z,1.55
2022-10-16T13:27:16.741Z,1.77
2022-10-16T13:29:43.522Z,1.63
2022-10-16T13:32:15.406Z,1.80
2022-10-16T13:34:50.006Z,1.77
2022-10-16T13:37:19.697Z,2.20
2022-10-16T13:39:47.809Z,2.22
2022-10-16T13:42:29.972Z,2.20
2022-10-16T13:44:57.462Z,2.17
2022-10-16T13:47:27.252Z,1.88
2022-10-16T13:50:20.623Z,2.67
2022-10-16T13:52:48.502Z,2.63
2022-10-16T13:55:17.852Z,2.50
2022-10-16T13:57:46.106Z,2.80
2022-10-16T14:00:20.179Z,2.25
2022-10-16T14:02:52.870Z,2.00
2022-10-16T14:05:19.725Z,1.80
2022-10-16T14:07:52.816Z,1.88
2022-10-16T14:10:32.233Z,2.10
2022-10-16T14:13:03.174Z,2.33
2022-10-16T14:15:32.337Z,2.20
2022-10-16T14:18:00.027Z,3.20
2022-10-16T14:20:32.980Z,3.70
2022-10-16T14:23:22.799Z,2.03
2022-10-16T14:25:49.661Z,1.90
2022-10-16T14:28:25.151Z,2.35
2022-10-16T14:30:58.470Z,2.10
2022-10-16T14:33:34.474Z,2.28
2022-10-16T14:36:03.758Z,2.05
2022-10-16T14:38:30.950Z,1.85
2022-10-16T14:40:59.813Z,2.10
2022-10-16T14:43:42.017Z,2.40
2022-10-16T14:46:16.763Z,2.17
2022-10-16T14:48:46.028Z,2.38
2022-10-16T14:51:19.780Z,1.73
2022-10-16T14:53:46.889Z,2.03
2022-10-16T14:56:22.356Z,2.00
2022-10-16T14:58:51.087Z,1.98
2022-10-16T15:01:19.116Z,1.90
2022-10-16T15:03:46.492Z,1.77
2022-10-16T15:06:14.818Z,1.77
2022-10-16T15:08:42.164Z,2.78
2022-10-16T15:11:20.507Z,2.92
2022-10-16T15:13:47.471Z,2.50
2022-10-16T15:16:18.154Z,6.30
2022-10-16T15:18:45.232Z,10.02
2022-10-16T15:21:30.956Z,6.13
2022-10-16T15:23:59.571Z,3.92
2022-10-16T15:26:28.477Z,3.35
2022-10-16T15:28:55.620Z,4.15
2022-10-16T15:31:26.624Z,6.63
2022-10-16T15:33:57.408Z,6.57
2022-10-16T15:36:29.536Z,9.55
2022-10-16T15:38:57.463Z,10.05
2022-10-16T15:41:24.313Z,5.10
2022-10-16T15:43:51.619Z,3.20
2022-10-16T15:46:23.872Z,2.90
2022-10-16T15:48:52.047Z,2.53
2022-10-16T15:51:19.646Z,2.45
2022-10-16T15:53:47.625Z,2.35
2022-10-16T15:56:15.598Z,2.80
2022-10-16T15:58:50.179Z,2.58
2022-10-16T16:01:17.550Z,2.70
2022-10-16T16:03:47.192Z,2.35
2022-10-16T16:06:16.173Z,2.65
2022-10-16T16:08:42.927Z,2.40
2022-10-16T16:11:14.909Z,2.50
2022-10-16T16:13:42.090Z,2.55
2022-10-16T16:16:11.508Z,2.58
2022-10-16T16:18:39.447Z,2.40
2022-10-16T16:21:06.527Z,2.53
2022-10-16T16:23:34.511Z,2.67
2022-10-16T16:26:11.030Z,3.03
2022-10-16T16:28:40.140Z,3.13
2022-10-16T16:31:07.459Z,2.65
2022-10-16T16:33:35.373Z,3.53
2022-10-16T16:36:12.947Z,2.58
2022-10-16T16:38:42.488Z,2.80
2022-10-16T16:41:18.120Z,3.30
2022-10-16T16:43:45.450Z,3.00
2022-10-16T16:46:12.664Z,3.28
2022-10-16T16:48:39.740Z,2.80
2022-10-16T16:51:08.180Z,3.33
2022-10-16T16:53:46.390Z,3.10
2022-10-16T16:56:13.947Z,3.80
2022-10-16T16:58:40.895Z,3.45
2022-10-16T17:01:20.683Z,3.10
2022-10-16T17:03:52.963Z,3.33
2022-10-16T17:06:21.863Z,3.35
2022-10-16T17:08:49.668Z,3.47
2022-10-16T17:11:25.767Z,3.72
2022-10-16T17:13:56.963Z,3.15
2022-10-16T17:16:27.325Z,3.40
2022-10-16T17:18:56.706Z,3.50
2022-10-16T17:21:24.083Z,3.40
2022-10-16T17:23:53.321Z,3.88
2022-10-16T17:26:24.534Z,3.58
2022-10-16T17:28:56.302Z,3.65
2022-10-16T17:31:29.113Z,3.40
2022-10-16T17:33:56.212Z,3.78
2022-10-16T17:36:23.730Z,3.65
2022-10-16T17:38:52.871Z,3.58
2022-10-16T17:41:24.516Z,3.70
2022-10-16T17:43:52.080Z,3.90
2022-10-16T17:46:21.609Z,3.67
2022-10-16T17:48:51.249Z,4.43
2022-10-16T17:51:22.732Z,3.67
2022-10-16T17:53:53.075Z,4.00
2022-10-16T17:56:22.130Z,5.05
2022-10-16T17:58:54.111Z,4.25
2022-10-16T18:01:26.850Z,4.05
2022-10-16T18:03:59.890Z,4.20
2022-10-16T18:06:28.168Z,4.18
2022-10-16T18:08:58.034Z,4.00
2022-10-16T18:11:26.692Z,4.22
2022-10-16T18:13:57.021Z,4.30
2022-10-16T18:16:24.015Z,4.22
2022-10-16T18:18:50.980Z,3.83
2022-10-16T18:21:19.886Z,3.90
2022-10-16T18:23:52.832Z,4.60
2022-10-16T18:26:22.894Z,3.78
2022-10-16T18:28:52.747Z,3.92
2022-10-16T18:31:23.723Z,3.67
2022-10-16T18:33:51.550Z,3.80
2022-10-16T18:36:29.810Z,3.83
2022-10-16T18:38:57.533Z,4.30
2022-10-16T18:41:24.892Z,4.13
2022-10-16T18:43:51.736Z,4.15
2022-10-16T18:46:21.321Z,4.10
2022-10-16T18:48:49.589Z,4.13
2022-10-16T18:51:25.111Z,4.28
2022-10-16T18:53:54.209Z,4.05
2022-10-16T18:56:23.538Z,4.80
2022-10-16T18:58:51.644Z,5.00
2022-10-16T19:01:28.813Z,4.97
2022-10-16T19:03:58.716Z,4.80
2022-10-16T19:06:26.085Z,4.57
2022-10-16T19:08:54.358Z,4.53
2022-10-16T19:11:23.845Z,4.40
2022-10-16T19:13:51.499Z,4.00
2022-10-16T19:16:23.789Z,3.90
2022-10-16T19:18:54.411Z,3.97
2022-10-16T19:21:21.742Z,3.97
2022-10-16T19:23:58.881Z,3.78
2022-10-16T19:26:26.941Z,4.43
2022-10-16T19:28:55.626Z,3.70
2022-10-16T19:31:25.226Z,4.47
2022-10-16T19:33:54.544Z,4.38
2022-10-16T19:36:24.485Z,3.90
2022-10-16T19:38:56.390Z,4.50
2022-10-16T19:41:26.455Z,4.18
2022-10-16T19:43:54.603Z,3.63
2022-10-16T19:46:25.782Z,4.13
2022-10-16T19:48:59.184Z,3.90
2022-10-16T19:51:26.857Z,3.50
2022-10-16T19:53:56.852Z,3.83
2022-10-16T19:56:25.145Z,4.13
2022-10-16T19:58:53.466Z,4.43
2022-10-16T20:01:20.764Z,4.00
2022-10-16T20:03:50.646Z,4.68
2022-10-16T20:06:19.831Z,4.07
2022-10-16T20:08:48.337Z,3.80
2022-10-16T20:11:18.897Z,4.15
2022-10-16T20:13:47.989Z,3.45
2022-10-16T20:16:18.017Z,3.60
2022-10-16T20:18:46.950Z,3.78
2022-10-16T20:21:20.884Z,3.50
2022-10-16T20:23:49.356Z,4.38
2022-10-16T20:26:17.029Z,4.07
2022-10-16T20:28:43.880Z,3.60
2022-10-16T20:31:18.278Z,3.58
2022-10-16T20:33:45.511Z,4.10
2022-10-16T20:36:14.490Z,3.83
2022-10-16T20:38:42.458Z,3.78
2022-10-16T20:41:10.923Z,3.67
2022-10-16T20:43:41.328Z,4.03
2022-10-16T20:46:13.756Z,3.47
2022-10-16T20:48:44.204Z,3.65
2022-10-16T20:51:16.301Z,4.07
2022-10-16T20:53:44.339Z,3.60
2022-10-16T20:56:12.534Z,3.97
2022-10-16T20:58:40.834Z,4.00
2022-10-16T21:01:09.625Z,3.80
2022-10-16T21:03:37.822Z,4.10
2022-10-16T21:06:06.924Z,3.70
2022-10-16T21:08:38.422Z,3.92
2022-10-16T21:11:17.511Z,4.32
2022-10-16T21:13:44.486Z,4.03
2022-10-16T21:16:12.991Z,3.65
2022-10-16T21:18:44.232Z,3.55
2022-10-16T21:21:19.579Z,3.63
2022-10-16T21:23:47.685Z,3.20
2022-10-16T21:26:14.361Z,3.38
2022-10-16T21:28:41.436Z,3.78
2022-10-16T21:31:15.325Z,3.80
2022-10-16T21:33:42.374Z,4.47
2022-10-16T21:36:32.989Z,4.13
2022-10-16T21:39:05.822Z,3.65
2022-10-16T21:41:36.497Z,3.90
2022-10-16T21:44:04.228Z,3.75
2022-10-16T21:46:34.101Z,3.28
2022-10-16T21:49:05.384Z,3.42
2022-10-16T21:51:35.553Z,3.58
2022-10-16T21:54:03.734Z,2.88
2022-10-16T21:56:30.627Z,3.20
2022-10-16T21:58:57.474Z,3.08
2022-10-16T22:01:26.149Z,3.50
2022-10-16T22:03:53.805Z,3.25
2022-10-16T22:08:59.869Z,3.53
2022-10-16T22:11:36.726Z,3.30
2022-10-16T22:14:06.352Z,3.30
2022-10-16T22:16:34.351Z,3.13
2022-10-16T22:19:03.390Z,3.22
2022-10-16T22:21:32.279Z,3.30
2022-10-16T22:24:00.059Z,3.20
2022-10-16T22:26:27.354Z,3.10
2022-10-16T22:28:55.310Z,3.15
2022-10-16T22:31:23.969Z,3.20
2022-10-16T22:33:59.086Z,2.95
2022-10-16T22:36:27.323Z,2.90
2022-10-16T22:38:55.621Z,3.20
2022-10-16T22:41:25.073Z,3.70
2022-10-16T22:43:53.166Z,3.30
2022-10-16T22:46:25.950Z,3.33
2022-10-16T22:48:55.732Z,3.53
2022-10-16T22:51:22.706Z,3.33
2022-10-16T22:53:50.648Z,3.72
2022-10-16T22:56:19.489Z,3.05
2022-10-16T22:58:46.975Z,3.40
2022-10-16T23:01:24.871Z,3.45
2022-10-16T23:03:51.613Z,3.13
2022-10-16T23:06:18.169Z,2.97
2022-10-16T23:08:45.028Z,3.00
2022-10-16T23:11:13.299Z,3.10
2022-10-16T23:13:45.360Z,2.90
2022-10-16T23:16:14.636Z,3.15
2022-10-16T23:18:42.848Z,2.95
2022-10-16T23:21:12.583Z,3.13
2022-10-16T23:23:40.450Z,3.05
2022-10-16T23:26:16.854Z,3.00
2022-10-16T23:28:44.224Z,3.10
2022-10-16T23:31:13.006Z,3.63
2022-10-16T23:33:40.080Z,3.40
2022-10-16T23:36:09.679Z,3.35
2022-10-16T23:38:36.581Z,4.10
2022-10-16T23:41:03.912Z,3.47
2022-10-16T23:43:30.777Z,4.03
2022-10-16T23:45:57.980Z,3.30
2022-10-16T23:48:25.741Z,4.30
2022-10-16T23:50:54.694Z,3.42
2022-10-16T23:53:22.349Z,3.78
2022-10-16T23:55:53.275Z,4.10
2022-10-16T23:58:21.536Z,3.70
